Time;durP1;ratioP1;P1;durP2;ratioP2;P2;SDS_P1;SDS_P2;PMS_P1;PMS_P2;Temp;Humidity;BMP_temperature;BMP_pressure;BME280_temperature;BME280_humidity;BME280_pressure;Samples;Min_cycle;Max_cycle;Signal;HPM_P1;HPM_P2
2023/08/18 00:03:26;;;;;;;6.53;5.90;;;22.50;99.90;;;;;;10468741;28;20269;-87
2023/08/18 00:08:29;;;;;;;7.13;6.53;;;22.40;99.90;;;;;;10495444;28;20202;-87
2023/08/18 00:13:31;;;;;;;7.17;6.60;;;22.40;99.90;;;;;;10489516;28;20220;-85
2023/08/18 00:18:33;;;;;;;6.63;6.17;;;22.40;99.90;;;;;;10486030;28;20214;-86
2023/08/18 00:23:37;;;;;;;6.60;6.07;;;22.30;99.90;;;;;;10493423;28;20193;-88
2023/08/18 00:28:39;;;;;;;7.27;6.67;;;22.30;99.90;;;;;;10482417;28;20216;-87
2023/08/18 00:33:41;;;;;;;6.93;6.33;;;22.30;99.90;;;;;;10468242;28;20217;-86
2023/08/18 00:38:45;;;;;;;6.77;6.27;;;22.30;99.90;;;;;;10486504;28;20252;-86
2023/08/18 00:43:47;;;;;;;6.70;6.20;;;22.20;99.90;;;;;;10483204;28;20226;-85
2023/08/18 00:48:51;;;;;;;6.67;6.17;;;22.20;99.90;;;;;;10448071;28;20249;-85
2023/08/18 00:53:55;;;;;;;6.67;5.90;;;22.10;99.90;;;;;;10533007;28;20594;-86
2023/08/18 00:58:58;;;;;;;6.40;5.90;;;22.00;99.90;;;;;;10517306;28;20205;-87
2023/08/18 01:04:00;;;;;;;8.53;6.90;;;21.90;99.90;;;;;;10469636;28;20643;-85
2023/08/18 01:09:04;;;;;;;7.07;6.50;;;21.90;99.90;;;;;;10488128;28;20711;-85
2023/08/18 01:14:18;;;;;;;7.20;6.70;;;21.80;99.90;;;;;;10476423;28;20225;-86
2023/08/18 01:19:21;;;;;;;6.83;6.33;;;21.70;99.90;;;;;;10453765;28;20249;-85
2023/08/18 01:24:26;;;;;;;7.47;6.80;;;21.60;99.90;;;;;;10506606;28;20216;-86
2023/08/18 01:29:28;;;;;;;7.23;6.73;;;21.60;99.90;;;;;;10466505;28;20224;-84
2023/08/18 01:34:31;;;;;;;8.90;6.00;;;21.60;99.90;;;;;;10496210;28;20245;-85
2023/08/18 01:39:35;;;;;;;6.43;6.03;;;21.60;99.90;;;;;;10500527;28;20217;-85
2023/08/18 01:44:37;;;;;;;6.80;6.20;;;21.50;99.90;;;;;;10491531;28;20185;-85
2023/08/18 01:49:40;;;;;;;6.47;5.97;;;21.50;99.90;;;;;;10478180;28;20755;-86
2023/08/18 01:54:43;;;;;;;6.73;6.07;;;21.50;99.90;;;;;;10516600;28;20308;-87
2023/08/18 01:59:45;;;;;;;7.87;7.10;;;21.40;99.90;;;;;;10512365;28;20298;-85
2023/08/18 02:04:47;;;;;;;7.80;5.93;;;21.40;99.90;;;;;;10472508;28;20943;-84
2023/08/18 02:09:51;;;;;;;8.23;6.03;;;21.40;99.90;;;;;;10477780;28;20336;-85
2023/08/18 02:14:53;;;;;;;6.30;5.90;;;21.40;99.90;;;;;;10471876;28;20221;-85
2023/08/18 02:19:55;;;;;;;6.70;5.83;;;21.40;99.90;;;;;;10509699;28;20763;-87
2023/08/18 02:24:58;;;;;;;5.90;5.50;;;21.40;99.90;;;;;;10479074;28;20206;-85
2023/08/18 02:30:01;;;;;;;6.97;6.10;;;21.40;99.90;;;;;;10501204;28;20629;-84
2023/08/18 02:35:04;;;;;;;6.03;5.53;;;21.40;99.90;;;;;;10472411;28;20229;-85
2023/08/18 02:40:09;;;;;;;9.50;6.33;;;21.40;99.90;;;;;;10476088;28;20727;-85
2023/08/18 02:45:12;;;;;;;6.27;5.77;;;21.40;99.90;;;;;;10489301;28;20198;-88
2023/08/18 02:50:14;;;;;;;6.87;6.00;;;21.40;99.90;;;;;;10466519;28;20252;-86
2023/08/18 02:55:17;;;;;;;5.80;5.20;;;21.40;99.90;;;;;;10502210;28;20221;-85
2023/08/18 03:00:20;;;;;;;6.47;5.87;;;21.40;99.90;;;;;;10483670;28;20218;-85
2023/08/18 03:05:22;;;;;;;6.33;5.63;;;21.30;99.90;;;;;;10499210;28;20208;-85
2023/08/18 03:10:26;;;;;;;6.57;6.10;;;21.30;99.90;;;;;;10530836;28;20201;-87
2023/08/18 03:15:28;;;;;;;5.53;5.03;;;21.30;99.90;;;;;;10483555;28;20541;-84
2023/08/18 03:20:30;;;;;;;5.73;5.37;;;21.30;99.90;;;;;;10508389;28;20240;-85
2023/08/18 03:25:34;;;;;;;6.90;6.50;;;21.20;99.90;;;;;;10514448;28;20196;-84
2023/08/18 03:30:39;;;;;;;6.17;5.57;;;21.20;99.90;;;;;;10484396;28;20776;-87
2023/08/18 03:35:42;;;;;;;5.23;4.83;;;21.20;99.90;;;;;;10470186;28;20217;-88
2023/08/18 03:40:46;;;;;;;6.43;5.80;;;21.10;99.90;;;;;;10478953;28;20561;-84
2023/08/18 03:45:48;;;;;;;5.27;4.87;;;21.00;99.90;;;;;;10506859;28;20189;-84
2023/08/18 03:50:50;;;;;;;4.67;4.27;;;21.00;99.90;;;;;;10482360;28;20363;-85
2023/08/18 03:55:56;;;;;;;6.57;5.93;;;20.90;99.90;;;;;;10472858;28;20732;-84
2023/08/18 04:01:02;;;;;;;5.73;5.23;;;20.80;99.90;;;;;;10507728;28;20241;-84
2023/08/18 04:06:05;;;;;;;8.00;5.10;;;20.70;99.90;;;;;;10519749;28;20232;-84
2023/08/18 04:11:10;;;;;;;5.73;4.93;;;20.60;99.90;;;;;;10485712;28;20221;-84
2023/08/18 04:16:12;;;;;;;5.93;5.43;;;20.60;99.90;;;;;;10506358;28;20213;-86
2023/08/18 04:21:17;;;;;;;5.83;5.33;;;20.60;99.90;;;;;;10492581;28;20217;-84
2023/08/18 04:26:20;;;;;;;5.80;5.20;;;20.50;99.90;;;;;;10512370;28;20182;-86
2023/08/18 04:31:23;;;;;;;6.10;5.60;;;20.50;99.90;;;;;;10490231;28;20708;-84
2023/08/18 04:36:29;;;;;;;6.23;5.63;;;20.50;99.90;;;;;;10509421;28;20258;-85
2023/08/18 04:41:32;;;;;;;6.60;4.97;;;20.50;99.90;;;;;;10474374;28;20248;-85
2023/08/18 04:46:35;;;;;;;5.37;4.90;;;20.50;99.90;;;;;;10506347;28;20206;-87
2023/08/18 04:51:43;;;;;;;5.27;4.87;;;20.50;99.90;;;;;;10508959;22;20614;-77
2023/08/18 04:56:47;;;;;;;5.77;5.20;;;20.50;99.90;;;;;;10490848;28;20221;-78
2023/08/18 05:01:51;;;;;;;5.73;5.23;;;20.50;99.90;;;;;;10492036;28;20249;-75
2023/08/18 05:06:54;;;;;;;6.53;6.03;;;20.50;99.90;;;;;;10493287;28;20584;-77
2023/08/18 05:11:57;;;;;;;6.60;5.50;;;20.50;99.90;;;;;;10493552;28;20611;-78
2023/08/18 05:16:59;;;;;;;6.90;5.60;;;20.40;99.90;;;;;;10494965;28;20229;-77
2023/08/18 05:22:01;;;;;;;5.67;5.17;;;20.50;99.90;;;;;;10495141;28;20221;-75
2023/08/18 05:27:05;;;;;;;5.30;4.90;;;20.50;99.90;;;;;;10495746;28;20193;-77
2023/08/18 05:32:07;;;;;;;6.10;4.80;;;20.60;99.90;;;;;;10494865;28;20264;-78
2023/08/18 05:37:11;;;;;;;4.70;4.40;;;20.70;99.90;;;;;;10495466;28;20321;-78
2023/08/18 05:42:15;;;;;;;5.77;5.27;;;20.70;99.90;;;;;;10489622;28;20685;-77
2023/08/18 05:47:17;;;;;;;5.93;5.30;;;20.70;99.90;;;;;;10493807;28;20186;-78
2023/08/18 05:52:19;;;;;;;5.27;4.80;;;20.80;99.90;;;;;;10493485;28;20225;-78
2023/08/18 05:57:23;;;;;;;4.80;4.40;;;20.80;99.90;;;;;;10493606;28;20294;-78
2023/08/18 06:02:25;;;;;;;5.40;5.00;;;20.80;99.90;;;;;;10491173;28;20228;-78
2023/08/18 06:07:27;;;;;;;5.70;5.20;;;20.90;99.90;;;;;;10494252;28;20201;-78
2023/08/18 06:12:30;;;;;;;6.27;5.70;;;20.90;99.90;;;;;;10493163;28;20225;-78
2023/08/18 06:17:32;;;;;;;5.10;4.80;;;20.90;99.90;;;;;;10494868;28;20689;-79
2023/08/18 06:22:35;;;;;;;5.53;5.03;;;21.00;99.90;;;;;;10490686;28;20262;-78
2023/08/18 06:27:38;;;;;;;7.10;6.40;;;21.10;99.90;;;;;;10475579;28;20186;-79
2023/08/18 06:32:40;;;;;;;8.23;6.47;;;21.10;99.90;;;;;;10492727;28;20710;-77
2023/08/18 06:37:43;;;;;;;8.73;5.93;;;21.20;99.90;;;;;;10492356;28;20213;-78
2023/08/18 06:42:46;;;;;;;7.30;6.67;;;21.20;99.90;;;;;;10491519;28;20229;-77
2023/08/18 06:47:48;;;;;;;6.80;6.20;;;21.30;99.90;;;;;;10492835;28;20765;-77
2023/08/18 06:52:50;;;;;;;6.47;5.97;;;21.40;99.90;;;;;;10491509;28;20233;-77
2023/08/18 06:57:54;;;;;;;6.37;5.77;;;21.50;99.90;;;;;;10490769;28;20217;-78
2023/08/18 07:02:56;;;;;;;5.90;5.50;;;21.50;99.90;;;;;;10488910;28;20217;-79
2023/08/18 07:07:58;;;;;;;10.03;6.90;;;21.60;99.90;;;;;;10492152;28;20730;-80
2023/08/18 07:13:03;;;;;;;7.70;6.90;;;21.70;99.90;;;;;;10489493;28;20593;-78
2023/08/18 07:18:07;;;;;;;5.97;5.43;;;21.80;99.90;;;;;;10491208;28;20244;-78
2023/08/18 07:23:09;;;;;;;7.07;6.57;;;21.90;99.90;;;;;;10490445;28;20221;-78
2023/08/18 07:28:12;;;;;;;6.40;5.47;;;22.00;99.90;;;;;;10491090;28;20243;-78
2023/08/18 07:33:15;;;;;;;6.43;5.83;;;22.10;99.90;;;;;;10489009;28;20240;-78
2023/08/18 07:38:17;;;;;;;5.00;4.70;;;22.30;99.90;;;;;;10490784;28;20225;-77
2023/08/18 07:43:20;;;;;;;4.70;4.40;;;22.50;99.90;;;;;;10490142;28;20298;-77
2023/08/18 07:48:23;;;;;;;4.90;4.50;;;22.70;99.90;;;;;;10490087;28;20956;-78
2023/08/18 07:53:26;;;;;;;4.40;4.10;;;22.90;99.90;;;;;;10489560;28;20228;-79
2023/08/18 07:58:29;;;;;;;6.40;4.70;;;23.10;99.90;;;;;;10488888;28;20275;-78
2023/08/18 08:03:32;;;;;;;5.00;4.13;;;23.30;99.90;;;;;;10497701;28;20608;-78
2023/08/18 08:08:35;;;;;;;4.10;3.53;;;23.50;99.90;;;;;;10507404;28;20200;-78
2023/08/18 08:13:38;;;;;;;4.10;3.70;;;23.70;99.90;;;;;;10497076;28;20197;-78
2023/08/18 08:18:40;;;;;;;4.00;3.80;;;23.80;99.90;;;;;;10478663;28;20303;-78
2023/08/18 08:23:43;;;;;;;4.20;3.87;;;24.00;99.90;;;;;;10501698;28;20197;-78
2023/08/18 08:28:46;;;;;;;3.77;3.30;;;24.10;99.90;;;;;;10497926;28;20268;-77
2023/08/18 08:33:48;;;;;;;6.00;3.53;;;24.30;99.90;;;;;;10502685;28;20209;-78
2023/08/18 08:38:51;;;;;;;3.80;3.40;;;24.50;99.90;;;;;;10494127;28;20217;-78
2023/08/18 08:43:54;;;;;;;4.30;3.30;;;24.80;99.90;;;;;;10494427;28;20601;-79
2023/08/18 08:49:01;;;;;;;3.60;3.40;;;25.10;99.90;;;;;;10494984;28;20227;-77
2023/08/18 08:54:07;;;;;;;3.03;2.70;;;25.30;99.90;;;;;;10495398;28;20270;-78
2023/08/18 08:59:11;;;;;;;4.93;3.63;;;25.50;99.90;;;;;;10494297;28;20217;-78
2023/08/18 09:04:14;;;;;;;3.53;3.33;;;25.50;99.90;;;;;;10494083;28;20208;-78
2023/08/18 09:09:18;;;;;;;3.70;3.40;;;25.50;99.90;;;;;;10488492;28;20217;-78
2023/08/18 09:14:21;;;;;;;11.20;3.63;;;25.60;99.90;;;;;;10495351;28;20601;-78
2023/08/18 09:19:26;;;;;;;2.83;2.73;;;25.60;99.90;;;;;;10494819;28;20634;-78
2023/08/18 09:24:29;;;;;;;3.47;3.10;;;25.70;99.90;;;;;;10494713;28;20201;-78
2023/08/18 09:29:33;;;;;;;3.37;3.07;;;25.80;99.90;;;;;;10494768;28;20252;-78
2023/08/18 09:34:37;;;;;;;3.00;2.80;;;25.90;99.90;;;;;;10513505;28;20254;-79
2023/08/18 09:39:39;;;;;;;2.67;2.43;;;26.10;99.90;;;;;;10505134;28;20218;-79
2023/08/18 09:44:43;;;;;;;3.30;2.93;;;26.40;99.90;;;;;;10501065;28;20193;-80
2023/08/18 09:49:48;;;;;;;2.83;2.63;;;26.80;99.90;;;;;;10504034;28;20282;-78
2023/08/18 09:54:59;;;;;;;3.17;2.87;;;27.30;99.90;;;;;;10492755;28;20197;-80
2023/08/18 10:00:04;;;;;;;3.17;2.73;;;27.80;99.90;;;;;;10494697;28;20221;-80
2023/08/18 10:05:15;;;;;;;3.07;2.87;;;28.30;99.90;;;;;;10510080;28;20209;-81
2023/08/18 10:10:19;;;;;;;3.53;2.67;;;28.70;99.90;;;;;;10503328;28;20311;-78
2023/08/18 10:15:24;;;;;;;2.63;2.43;;;29.10;99.80;;;;;;10506531;28;20247;-79
2023/08/18 10:20:27;;;;;;;2.80;2.40;;;29.40;99.50;;;;;;10503912;28;20217;-80
2023/08/18 10:25:31;;;;;;;3.13;2.93;;;29.40;98.40;;;;;;10510543;28;20638;-80
2023/08/18 10:30:34;;;;;;;5.33;3.87;;;29.10;98.80;;;;;;10504191;28;20730;-80
2023/08/18 10:35:41;;;;;;;11.90;3.03;;;28.70;99.10;;;;;;10507479;28;20228;-79
2023/08/18 10:40:43;;;;;;;3.43;3.17;;;28.40;97.90;;;;;;10501639;28;20247;-80
2023/08/18 10:45:51;;;;;;;2.93;2.53;;;28.10;98.10;;;;;;10502487;28;20199;-80
2023/08/18 10:50:53;;;;;;;3.30;2.90;;;27.90;99.10;;;;;;10519298;22;20883;-86
2023/08/18 10:55:56;;;;;;;3.07;2.83;;;27.60;98.70;;;;;;10411280;28;20248;-86
2023/08/18 11:01:00;;;;;;;3.17;2.97;;;27.40;99.90;;;;;;10437199;28;20834;-87
2023/08/18 11:06:03;;;;;;;2.70;2.50;;;27.30;97.40;;;;;;10426688;28;20574;-86
2023/08/18 11:11:05;;;;;;;3.00;2.70;;;27.30;98.40;;;;;;10401471;28;20233;-86
2023/08/18 11:16:09;;;;;;;3.00;2.80;;;27.20;99.90;;;;;;10394561;28;20222;-86
2023/08/18 11:21:11;;;;;;;3.10;2.77;;;27.00;99.90;;;;;;10438539;28;20245;-85
2023/08/18 11:26:14;;;;;;;3.10;2.90;;;26.90;97.90;;;;;;10444227;28;20198;-86
2023/08/18 11:31:17;;;;;;;2.90;2.70;;;26.90;97.60;;;;;;10429456;28;20280;-86
2023/08/18 11:36:20;;;;;;;2.50;2.40;;;26.90;98.90;;;;;;10384466;28;20484;-86
2023/08/18 11:41:22;;;;;;;2.90;2.70;;;26.90;99.80;;;;;;10439779;28;20249;-87
2023/08/18 11:46:26;;;;;;;3.00;2.80;;;26.90;98.40;;;;;;10375461;28;20642;-86
2023/08/18 11:51:28;;;;;;;2.83;2.60;;;27.00;98.60;;;;;;10454716;28;20223;-86
2023/08/18 11:56:31;;;;;;;3.20;3.00;;;27.00;98.10;;;;;;10407226;28;20283;-86
2023/08/18 12:01:35;;;;;;;3.10;2.60;;;27.00;98.60;;;;;;10422417;28;20210;-86
2023/08/18 12:06:37;;;;;;;2.90;2.30;;;27.00;99.10;;;;;;10420123;28;20229;-86
2023/08/18 12:11:40;;;;;;;4.20;3.50;;;26.90;99.40;;;;;;10408528;28;20230;-86
2023/08/18 12:16:43;;;;;;;2.73;2.30;;;26.90;97.60;;;;;;10366081;28;20218;-87
2023/08/18 12:21:46;;;;;;;2.97;2.77;;;27.00;96.80;;;;;;10435288;28;20546;-86
2023/08/18 12:26:48;;;;;;;4.87;2.77;;;27.00;96.60;;;;;;10385429;28;20206;-86
2023/08/18 12:31:52;;;;;;;3.73;3.20;;;27.00;98.60;;;;;;10401061;28;20723;-87
2023/08/18 12:36:56;;;;;;;3.10;2.87;;;26.90;99.70;;;;;;10415311;28;20236;-86
2023/08/18 12:41:58;;;;;;;3.77;2.83;;;26.90;99.90;;;;;;10449945;28;20681;-86
2023/08/18 12:47:02;;;;;;;2.03;1.93;;;26.90;97.00;;;;;;10415574;28;20194;-86
2023/08/18 12:52:04;;;;;;;3.00;2.80;;;26.90;98.80;;;;;;10420621;28;20475;-86
2023/08/18 12:57:06;;;;;;;4.20;2.90;;;26.80;99.20;;;;;;10424229;28;20241;-86
2023/08/18 13:02:10;;;;;;;4.20;2.43;;;26.80;97.40;;;;;;10445921;28;20348;-86
2023/08/18 13:07:12;;;;;;;2.50;2.40;;;27.00;95.40;;;;;;10429266;28;20217;-89
2023/08/18 13:12:14;;;;;;;4.80;3.00;;;27.20;97.60;;;;;;10429159;28;20271;-87
2023/08/18 13:17:18;;;;;;;6.17;2.50;;;27.20;99.80;;;;;;10381981;28;20222;-87
2023/08/18 13:22:20;;;;;;;2.97;2.77;;;27.20;95.40;;;;;;10452155;28;20224;-86
2023/08/18 13:27:22;;;;;;;3.43;2.67;;;27.20;95.30;;;;;;10426352;28;20201;-86
2023/08/18 13:32:26;;;;;;;3.93;2.50;;;27.20;97.70;;;;;;10434937;28;20225;-86
2023/08/18 13:37:28;;;;;;;2.90;2.70;;;27.10;96.60;;;;;;10424293;28;20305;-89
2023/08/18 13:42:30;;;;;;;3.33;3.03;;;27.10;96.40;;;;;;10447949;28;20263;-86
2023/08/18 13:47:34;;;;;;;4.00;2.63;;;27.10;97.40;;;;;;10445798;28;20181;-89
2023/08/18 13:52:36;;;;;;;5.03;3.00;;;27.10;96.90;;;;;;10463665;28;20224;-87
2023/08/18 13:57:38;;;;;;;3.57;2.70;;;27.20;96.80;;;;;;10391886;28;20268;-86
2023/08/18 14:02:41;;;;;;;6.07;2.60;;;27.20;97.10;;;;;;10431077;28;20206;-87
2023/08/18 14:07:43;;;;;;;3.10;2.90;;;27.20;99.20;;;;;;10427938;28;20197;-86
2023/08/18 14:12:49;;;;;;;8.23;2.20;;;27.20;99.10;;;;;;10447859;28;20575;-87
2023/08/18 14:17:53;;;;;;;2.43;2.23;;;27.20;94.00;;;;;;10392400;28;20227;-86
2023/08/18 14:22:55;;;;;;;5.70;3.03;;;27.40;95.30;;;;;;10419037;28;20585;-87
2023/08/18 14:27:57;;;;;;;3.83;3.10;;;27.50;95.10;;;;;;10386432;28;20202;-86
2023/08/18 14:33:02;;;;;;;7.57;2.63;;;27.60;95.50;;;;;;10428028;28;20317;-87
2023/08/18 14:38:05;;;;;;;3.03;2.47;;;27.50;95.30;;;;;;10420760;28;20596;-86
2023/08/18 14:43:07;;;;;;;9.13;2.57;;;27.50;92.50;;;;;;10433355;28;20286;-86
2023/08/18 14:48:11;;;;;;;4.10;2.73;;;27.60;95.20;;;;;;10459090;28;20205;-88
2023/08/18 14:53:13;;;;;;;3.20;2.70;;;27.60;94.40;;;;;;10478253;28;20214;-89
2023/08/18 14:58:15;;;;;;;4.20;2.83;;;27.60;95.10;;;;;;10425089;28;20198;-85
2023/08/18 15:03:19;;;;;;;2.80;2.13;;;27.60;96.10;;;;;;10494029;28;20225;-86
2023/08/18 15:08:21;;;;;;;6.30;2.40;;;27.60;97.10;;;;;;10443162;28;20207;-83
2023/08/18 15:13:23;;;;;;;2.60;2.40;;;27.40;97.20;;;;;;10476057;28;20214;-83
2023/08/18 15:18:26;;;;;;;4.37;2.87;;;27.40;95.80;;;;;;10441039;28;20247;-81
2023/08/18 15:23:29;;;;;;;6.10;3.10;;;27.30;97.80;;;;;;10463626;28;20774;-84
2023/08/18 15:28:31;;;;;;;3.00;2.77;;;27.30;94.40;;;;;;10383411;28;20219;-84
2023/08/18 15:33:34;;;;;;;5.33;2.97;;;27.50;94.00;;;;;;10461453;28;20289;-81
2023/08/18 15:38:37;;;;;;;4.27;3.03;;;27.70;95.80;;;;;;10441440;28;20222;-82
2023/08/18 15:43:39;;;;;;;2.63;2.43;;;27.90;97.40;;;;;;10434172;28;20249;-83
2023/08/18 15:48:42;;;;;;;2.93;2.73;;;27.90;98.10;;;;;;10425468;28;20199;-84
2023/08/18 15:53:44;;;;;;;3.50;2.60;;;27.70;96.80;;;;;;10446442;28;20279;-82
2023/08/18 15:58:46;;;;;;;4.93;3.50;;;27.60;98.30;;;;;;10433821;28;20666;-80
2023/08/18 16:03:50;;;;;;;3.73;3.30;;;27.50;96.10;;;;;;10463084;28;20226;-81
2023/08/18 16:08:52;;;;;;;3.50;2.33;;;27.30;98.70;;;;;;10451973;28;20202;-82
2023/08/18 16:13:54;;;;;;;6.00;3.40;;;27.20;98.10;;;;;;10466502;28;20218;-80
2023/08/18 16:18:57;;;;;;;2.77;2.43;;;27.20;98.20;;;;;;10467951;28;20218;-81
2023/08/18 16:24:00;;;;;;;4.10;3.77;;;27.20;96.80;;;;;;10442745;28;20237;-80
2023/08/18 16:29:02;;;;;;;3.67;3.03;;;27.20;98.50;;;;;;10436046;28;20203;-82
2023/08/18 16:34:05;;;;;;;3.17;2.87;;;27.20;99.70;;;;;;10452180;28;20222;-82
2023/08/18 16:39:07;;;;;;;2.57;2.37;;;27.10;99.90;;;;;;10461800;28;20222;-84
2023/08/18 16:44:09;;;;;;;3.07;2.87;;;27.10;97.40;;;;;;10420239;28;20218;-86
2023/08/18 16:49:13;;;;;;;4.50;2.73;;;27.20;99.70;;;;;;10464710;28;20189;-86
2023/08/18 16:54:15;;;;;;;4.20;3.17;;;27.20;98.90;;;;;;10459884;28;20272;-85
2023/08/18 16:59:17;;;;;;;3.97;2.37;;;27.20;99.30;;;;;;10384746;28;20221;-86
2023/08/18 17:04:21;;;;;;;3.40;3.20;;;27.20;99.10;;;;;;10446222;28;20218;-87
2023/08/18 17:09:23;;;;;;;5.77;2.83;;;27.10;99.90;;;;;;10415876;28;20194;-86
2023/08/18 17:14:25;;;;;;;2.80;2.60;;;27.10;99.00;;;;;;10450724;28;20252;-86
2023/08/18 17:19:29;;;;;;;3.73;3.40;;;27.10;99.90;;;;;;10457096;28;20218;-86
2023/08/18 17:24:31;;;;;;;3.00;2.80;;;27.00;99.40;;;;;;10459982;28;20256;-85
2023/08/18 17:29:33;;;;;;;4.93;3.00;;;27.00;99.90;;;;;;10459601;28;20226;-86
2023/08/18 17:34:37;;;;;;;3.57;3.37;;;26.90;99.90;;;;;;10407519;28;20319;-86
2023/08/18 17:39:39;;;;;;;3.60;3.40;;;26.70;99.90;;;;;;10448478;28;20222;-85
2023/08/18 17:44:41;;;;;;;4.80;3.50;;;26.60;99.90;;;;;;10438889;28;20688;-86
2023/08/18 17:49:44;;;;;;;4.30;3.23;;;26.50;99.90;;;;;;10439000;28;20194;-85
2023/08/18 17:54:47;;;;;;;9.67;3.50;;;26.50;99.90;;;;;;10456407;28;20257;-85
2023/08/18 17:59:49;;;;;;;5.30;3.97;;;26.50;99.90;;;;;;10474352;28;20283;-86
2023/08/18 18:04:53;;;;;;;5.73;4.83;;;26.50;99.90;;;;;;10439536;28;20202;-85
2023/08/18 18:09:55;;;;;;;4.10;3.70;;;26.50;99.90;;;;;;10436526;28;20241;-86
2023/08/18 18:14:57;;;;;;;3.40;3.10;;;26.60;99.90;;;;;;10455174;28;20197;-86
2023/08/18 18:20:01;;;;;;;3.57;3.27;;;26.60;99.90;;;;;;10454634;28;20264;-86
2023/08/18 18:25:04;;;;;;;3.83;3.53;;;26.50;99.90;;;;;;10408711;28;20599;-85
2023/08/18 18:30:09;;;;;;;5.27;4.10;;;26.50;99.90;;;;;;10423702;28;20305;-86
2023/08/18 18:35:13;;;;;;;3.93;3.23;;;26.40;99.90;;;;;;10388424;28;20203;-86
2023/08/18 18:40:17;;;;;;;4.03;3.73;;;26.40;99.90;;;;;;10438878;28;20609;-86
2023/08/18 18:45:20;;;;;;;4.27;3.87;;;26.30;99.90;;;;;;10426298;28;20202;-87
2023/08/18 18:50:24;;;;;;;3.13;2.90;;;26.30;99.90;;;;;;10447214;28;20225;-86
2023/08/18 18:55:26;;;;;;;4.27;3.80;;;26.30;99.90;;;;;;10447979;28;20208;-85
2023/08/18 19:00:28;;;;;;;5.83;3.70;;;26.30;99.90;;;;;;10430858;28;20226;-86
2023/08/18 19:05:38;;;;;;;3.80;3.50;;;26.30;99.90;;;;;;10409807;28;20215;-87
2023/08/18 19:10:40;;;;;;;3.50;3.20;;;26.20;99.90;;;;;;10435420;28;20709;-85
2023/08/18 19:15:42;;;;;;;4.43;4.00;;;26.20;99.90;;;;;;10447528;28;20255;-86
2023/08/18 19:20:45;;;;;;;7.10;3.43;;;26.10;99.90;;;;;;10411033;28;20222;-85
2023/08/18 19:25:47;;;;;;;3.67;3.37;;;26.00;99.90;;;;;;10442367;28;20782;-84
2023/08/18 19:30:53;;;;;;;5.13;4.00;;;26.00;99.90;;;;;;10450610;28;20807;-86
2023/08/18 19:35:56;;;;;;;3.50;3.30;;;26.00;99.90;;;;;;10427093;28;20210;-85
2023/08/18 19:40:58;;;;;;;3.40;2.93;;;26.00;99.90;;;;;;10401646;28;20242;-83
2023/08/18 19:46:01;;;;;;;3.50;3.30;;;25.90;99.90;;;;;;10423887;28;20277;-85
2023/08/18 19:51:05;;;;;;;6.30;3.70;;;25.90;99.90;;;;;;10394376;28;20230;-84
2023/08/18 19:56:07;;;;;;;5.90;3.30;;;25.90;99.90;;;;;;10400836;28;20197;-85
2023/08/18 20:01:09;;;;;;;5.23;3.60;;;25.80;99.90;;;;;;10429443;28;20233;-85
2023/08/18 20:06:14;;;;;;;4.93;3.50;;;25.80;99.90;;;;;;10432592;28;20210;-87
2023/08/18 20:11:16;;;;;;;3.83;3.30;;;25.80;99.90;;;;;;10448747;28;20220;-86
2023/08/18 20:16:19;;;;;;;3.97;2.80;;;25.80;99.90;;;;;;10404576;28;20260;-86
2023/08/18 20:21:22;;;;;;;3.67;3.37;;;25.80;99.90;;;;;;10429410;28;20225;-86
2023/08/18 20:26:24;;;;;;;5.13;3.43;;;25.80;99.90;;;;;;10437504;28;20194;-85
2023/08/18 20:31:26;;;;;;;4.20;3.40;;;25.80;99.90;;;;;;10455110;28;20238;-87
2023/08/18 20:36:30;;;;;;;3.33;2.80;;;25.80;99.90;;;;;;10410682;28;20800;-85
2023/08/18 20:41:32;;;;;;;3.80;2.70;;;25.80;99.90;;;;;;10445183;28;20233;-85
2023/08/18 20:46:34;;;;;;;3.60;3.40;;;25.80;99.90;;;;;;10460251;28;20218;-85
2023/08/18 20:51:39;;;;;;;2.73;2.53;;;25.70;99.90;;;;;;10461023;28;20306;-85
2023/08/18 20:56:41;;;;;;;2.90;2.70;;;25.60;99.90;;;;;;10405029;28;20202;-85
2023/08/18 21:01:43;;;;;;;3.50;3.20;;;25.60;99.90;;;;;;10439046;28;20229;-85
2023/08/18 21:06:46;;;;;;;8.80;3.30;;;25.50;99.90;;;;;;10421143;28;20206;-85
2023/08/18 21:11:48;;;;;;;4.27;2.83;;;25.40;99.90;;;;;;10435135;28;20286;-86
2023/08/18 21:16:51;;;;;;;4.17;3.73;;;25.30;99.90;;;;;;10418937;28;20226;-86
2023/08/18 21:21:54;;;;;;;3.67;3.33;;;25.30;99.90;;;;;;10433661;28;20296;-85
2023/08/18 21:26:58;;;;;;;3.50;3.20;;;25.20;99.90;;;;;;10447695;28;20202;-85
2023/08/18 21:32:00;;;;;;;3.30;3.00;;;25.20;99.90;;;;;;10425406;28;20218;-85
2023/08/18 21:37:03;;;;;;;3.87;3.00;;;25.10;99.90;;;;;;10412261;28;20195;-85
2023/08/18 21:42:06;;;;;;;8.93;3.60;;;25.10;99.90;;;;;;10442333;28;20222;-86
2023/08/18 21:47:08;;;;;;;9.90;3.10;;;25.00;99.90;;;;;;10462514;28;20630;-86
2023/08/18 21:52:12;;;;;;;3.73;3.43;;;25.00;99.90;;;;;;10374155;28;20231;-86
2023/08/18 21:57:14;;;;;;;7.43;3.10;;;24.90;99.90;;;;;;10433976;28;20212;-85
2023/08/18 22:02:16;;;;;;;4.20;2.77;;;24.80;99.90;;;;;;10426949;28;20218;-85
2023/08/18 22:07:20;;;;;;;3.30;3.00;;;24.70;99.90;;;;;;10443806;28;20202;-84
2023/08/18 22:12:22;;;;;;;4.70;3.47;;;24.70;99.90;;;;;;10439246;28;20706;-85
2023/08/18 22:17:24;;;;;;;3.63;3.33;;;24.60;99.90;;;;;;10420700;28;20217;-84
2023/08/18 22:22:28;;;;;;;3.70;3.40;;;24.60;99.90;;;;;;10421044;28;20337;-84
2023/08/18 22:27:30;;;;;;;3.80;3.27;;;24.50;99.90;;;;;;10455935;28;20198;-86
2023/08/18 22:32:32;;;;;;;3.87;3.63;;;24.40;99.90;;;;;;10409051;28;20650;-85
2023/08/18 22:37:36;;;;;;;3.47;3.17;;;24.40;99.90;;;;;;10413789;28;20218;-85
2023/08/18 22:42:38;;;;;;;4.20;3.80;;;24.30;99.90;;;;;;10422953;28;20217;-85
2023/08/18 22:47:41;;;;;;;3.53;3.30;;;24.20;99.90;;;;;;10426265;28;20348;-85
2023/08/18 22:52:45;;;;;;;3.33;3.13;;;24.10;99.90;;;;;;10416647;28;20290;-84
2023/08/18 22:57:48;;;;;;;3.83;3.43;;;24.10;99.90;;;;;;10447496;28;20689;-86
2023/08/18 23:02:50;;;;;;;3.73;3.43;;;24.10;99.90;;;;;;10401850;28;20214;-86
2023/08/18 23:07:54;;;;;;;3.70;3.43;;;24.10;99.90;;;;;;10448834;28;20489;-85
2023/08/18 23:12:56;;;;;;;3.67;3.27;;;24.00;99.90;;;;;;10419381;28;20252;-85
2023/08/18 23:17:58;;;;;;;3.70;3.30;;;24.00;99.90;;;;;;10438297;28;20225;-86
2023/08/18 23:23:02;;;;;;;6.03;3.70;;;24.00;99.90;;;;;;10401877;28;20595;-85
2023/08/18 23:28:04;;;;;;;4.93;3.40;;;23.90;99.90;;;;;;10440593;28;20630;-85
2023/08/18 23:33:06;;;;;;;3.80;3.50;;;23.80;99.90;;;;;;10392407;28;20660;-86
2023/08/18 23:38:10;;;;;;;3.77;3.47;;;23.70;99.90;;;;;;10456237;28;20218;-87
2023/08/18 23:43:12;;;;;;;3.70;3.27;;;23.70;99.90;;;;;;10448191;28;20211;-86
2023/08/18 23:48:14;;;;;;;4.13;3.80;;;23.70;99.90;;;;;;10469137;28;20207;-86
2023/08/18 23:53:18;;;;;;;4.73;3.10;;;23.70;99.90;;;;;;10431712;28;20207;-86
2023/08/18 23:58:20;;;;;;;4.27;3.33;;;23.60;99.90;;;;;;10427229;28;20317;-85
